• Join FlightAware (Why Join?)
  • Login
  • US Flag 
07:27AM EDT


 

Airport Tracker/Info


-or-


 

Live Flight TrackerFlight Track Log ✈ UAL4191 ✈ 27-Apr-2013 ✈ KAUS - KIAH

Flight Track Log - Related Links

Times and Time Zones

All times are in EDT time to prevent confusion due to time zone crossing. See the UAL4191 flight status page for this flight to view local times or setup timezone preferences in your user account.

Time Position Orientation Groundspeed Altitude Reporting Facility
EDT Latitude Longitude Course Direction KTS MPH feet Rate Location/Type
11:39AM 30.1617 -97.5458 90° East 237 273 5,500  Level Houston Center
11:40AM 30.3617 -97.4333 97° East  Level FlightAware Approximate
11:40AM 30.1936 -97.4681 65° Northeast 256 295 7,600  Level Houston Center
11:41AM 30.3531 -97.3475 97° East  Level FlightAware Approximate
11:41AM 30.2272 -97.3869 64° Northeast 272 313 9,600  Level Houston Center
11:42AM 30.3500 -97.2614 90° East  Level FlightAware Approximate
11:42AM 30.2692 -97.2842 65° Northeast 297 342 11,300  Level Houston Center
11:43AM 30.3500 -97.1751 90° East  Level FlightAware Approximate
11:43AM 30.3094 -97.1864 64° Northeast 327 376 12,300  Level Houston Center
11:44AM 30.3500 -97.0888 90° East  Level FlightAware Approximate
11:44AM 30.3528 -97.0794 65° Northeast 358 412 13,500  Level Houston Center
11:45AM 30.3953 -96.9700 66° East 370 426 15,000 1,440 Climbing Houston Center
11:46AM 30.4153 -96.8525 79° East 377 434 16,500 960 Climbing Houston Center
11:47AM 30.4214 -96.7267 87° East 387 445 17,000 -120 Climbing Houston Center
11:48AM 30.4253 -96.6289 87° East 413 475 16,300 -1,020 Descending Houston Center
11:48AM 30.4261 -96.5917 89° East 411 473 16,000 -1,380 Descending Houston Center
11:49AM 30.4289 -96.4906 88° East 413 475 14,900 -1,560 Descending Houston Center
11:49AM 30.4333 -96.4383 84° East 408 470 14,400 -1,140 Descending Houston Center
11:50AM 30.4339 -96.3736 89° East 397 457 13,900 -1,080 Descending Houston Center
11:51AM 30.4397 -96.2447 87° East 390 449 12,800 -1,080 Descending Houston Center
11:51AM 30.4417 -96.1853 88° East 391 450 12,300 -1,020 Descending Houston Center
11:52AM 30.4419 -96.1233 90° East 393 452 11,800 -1,020 Descending Houston Center
11:52AM 30.4269 -96.0611 106° East 400 460 11,300 -1,200 Descending Houston Center
11:53AM 30.3947 -96.0103 126° Southeast 376 433 10,600 -1,020 Descending Houston Center
11:53AM 30.3603 -95.9706 135° Southeast 363 418 10,300 -600 Descending Houston Center
11:54AM 30.3217 -95.9436 149° Southeast 302 348 10,000 -1,080 Descending Houston Center
11:54AM 30.2892 -95.9208 149° Southeast 300 345 9,200 -1,800 Descending Houston Center
11:55AM 30.2478 -95.8892 147° Southeast 282 325 8,000 -1,800 Descending Houston Center
11:55AM 30.2233 -95.8714 148° Southeast 284 327 7,400 -1,980 Descending Houston Center
11:56AM 30.1803 -95.8389 147° Southeast 273 314 6,000 -2,160 Descending Houston Center
11:56AM 30.1622 -95.8231 143° Southeast 271 312 5,200 -1,800 Descending Houston Center
11:57AM 30.1194 -95.7906 147° Southeast 260 299 4,200 -1,200 Descending Houston Center
11:57AM 30.1028 -95.7761 143° Southeast 260 299 4,000 -840 Descending Houston Center
11:58AM 30.0653 -95.7486 148° Southeast 216 249 3,400 -1,020 Descending Houston Center
11:58AM 30.0414 -95.7289 144° Southeast 224 258 3,000 -420 Descending Houston Center
11:59AM 30.0211 -95.6983 127° Southeast 237 273 3,000  Level Houston Center
11:59AM 30.0078 -95.6672 116° Southeast 233 268 3,000  Level Houston Center
12:00PM 30.0064 -95.6278 92° East 231 266 3,000  Level Houston Center
12:00PM 30.0072 -95.5939 88° East 229 264 3,000  Level Houston Center
12:01PM 30.0061 -95.5553 92° East 230 265 3,000  Level Houston Center